sensor_id;sensor_type;location;lat;lon;timestamp;P1;durP1;ratioP1;P2;durP2;ratioP2
70312;SDS011;57723;51.698;5.344;2023-11-19T00:01:23;3.73;;;0.97;;
70312;SDS011;57723;51.698;5.344;2023-11-19T00:03:48;5.43;;;1.10;;
70312;SDS011;57723;51.698;5.344;2023-11-19T00:06:14;3.85;;;1.20;;
70312;SDS011;57723;51.698;5.344;2023-11-19T00:08:40;7.83;;;1.00;;
70312;SDS011;57723;51.698;5.344;2023-11-19T00:11:05;6.45;;;1.30;;
70312;SDS011;57723;51.698;5.344;2023-11-19T00:13:31;4.00;;;1.23;;
70312;SDS011;57723;51.698;5.344;2023-11-19T00:15:57;3.30;;;1.00;;
70312;SDS011;57723;51.698;5.344;2023-11-19T00:18:22;5.20;;;1.17;;
70312;SDS011;57723;51.698;5.344;2023-11-19T00:20:48;5.55;;;1.17;;
70312;SDS011;57723;51.698;5.344;2023-11-19T00:23:13;2.45;;;1.25;;
70312;SDS011;57723;51.698;5.344;2023-11-19T00:25:39;3.10;;;1.00;;
70312;SDS011;57723;51.698;5.344;2023-11-19T00:28:04;3.70;;;1.30;;
70312;SDS011;57723;51.698;5.344;2023-11-19T00:30:29;3.13;;;1.00;;
70312;SDS011;57723;51.698;5.344;2023-11-19T00:32:56;2.42;;;0.90;;
70312;SDS011;57723;51.698;5.344;2023-11-19T00:35:21;2.87;;;1.10;;
70312;SDS011;57723;51.698;5.344;2023-11-19T00:37:46;2.27;;;1.00;;
70312;SDS011;57723;51.698;5.344;2023-11-19T00:40:13;7.23;;;1.17;;
70312;SDS011;57723;51.698;5.344;2023-11-19T00:42:40;2.97;;;0.90;;
70312;SDS011;57723;51.698;5.344;2023-11-19T00:45:06;7.60;;;1.30;;
70312;SDS011;57723;51.698;5.344;2023-11-19T00:47:34;4.18;;;1.40;;
70312;SDS011;57723;51.698;5.344;2023-11-19T00:50:01;4.00;;;1.10;;
70312;SDS011;57723;51.698;5.344;2023-11-19T00:52:29;3.22;;;1.00;;
70312;SDS011;57723;51.698;5.344;2023-11-19T00:54:56;7.07;;;1.20;;
70312;SDS011;57723;51.698;5.344;2023-11-19T00:57:23;3.17;;;1.13;;
70312;SDS011;57723;51.698;5.344;2023-11-19T00:59:49;2.35;;;0.90;;
70312;SDS011;57723;51.698;5.344;2023-11-19T01:02:14;2.85;;;1.38;;
70312;SDS011;57723;51.698;5.344;2023-11-19T01:04:40;1.23;;;0.80;;
70312;SDS011;57723;51.698;5.344;2023-11-19T01:07:05;3.77;;;0.87;;
70312;SDS011;57723;51.698;5.344;2023-11-19T01:09:34;4.15;;;1.00;;
70312;SDS011;57723;51.698;5.344;2023-11-19T01:12:02;8.57;;;1.20;;
70312;SDS011;57723;51.698;5.344;2023-11-19T01:14:28;5.47;;;1.10;;
70312;SDS011;57723;51.698;5.344;2023-11-19T01:16:53;3.17;;;1.10;;
70312;SDS011;57723;51.698;5.344;2023-11-19T01:19:19;3.40;;;1.13;;
70312;SDS011;57723;51.698;5.344;2023-11-19T01:21:44;2.13;;;1.00;;
70312;SDS011;57723;51.698;5.344;2023-11-19T01:24:10;5.70;;;1.13;;
70312;SDS011;57723;51.698;5.344;2023-11-19T01:26:38;4.70;;;1.10;;
70312;SDS011;57723;51.698;5.344;2023-11-19T01:29:06;2.35;;;1.00;;
70312;SDS011;57723;51.698;5.344;2023-11-19T01:31:31;3.60;;;1.07;;
70312;SDS011;57723;51.698;5.344;2023-11-19T01:33:58;1.83;;;0.85;;
70312;SDS011;57723;51.698;5.344;2023-11-19T01:36:24;3.60;;;0.90;;
70312;SDS011;57723;51.698;5.344;2023-11-19T01:38:49;3.60;;;0.80;;
70312;SDS011;57723;51.698;5.344;2023-11-19T01:41:15;3.33;;;1.07;;
70312;SDS011;57723;51.698;5.344;2023-11-19T01:43:40;2.75;;;0.82;;
70312;SDS011;57723;51.698;5.344;2023-11-19T01:46:06;2.97;;;0.90;;
70312;SDS011;57723;51.698;5.344;2023-11-19T01:48:33;3.83;;;1.10;;
70312;SDS011;57723;51.698;5.344;2023-11-19T01:51:00;1.77;;;0.90;;
70312;SDS011;57723;51.698;5.344;2023-11-19T01:53:25;2.40;;;1.10;;
70312;SDS011;57723;51.698;5.344;2023-11-19T01:55:51;2.35;;;0.90;;
70312;SDS011;57723;51.698;5.344;2023-11-19T01:58:17;2.90;;;0.95;;
70312;SDS011;57723;51.698;5.344;2023-11-19T02:00:44;3.23;;;1.20;;
70312;SDS011;57723;51.698;5.344;2023-11-19T02:03:09;2.50;;;1.05;;
70312;SDS011;57723;51.698;5.344;2023-11-19T02:05:35;6.15;;;2.40;;
70312;SDS011;57723;51.698;5.344;2023-11-19T02:08:01;3.92;;;0.90;;
70312;SDS011;57723;51.698;5.344;2023-11-19T02:10:28;2.67;;;1.00;;
70312;SDS011;57723;51.698;5.344;2023-11-19T02:12:53;2.83;;;1.20;;
70312;SDS011;57723;51.698;5.344;2023-11-19T02:15:20;2.95;;;1.00;;
70312;SDS011;57723;51.698;5.344;2023-11-19T02:17:45;2.37;;;1.13;;
70312;SDS011;57723;51.698;5.344;2023-11-19T02:20:10;2.23;;;1.00;;
70312;SDS011;57723;51.698;5.344;2023-11-19T02:22:40;5.30;;;1.13;;
70312;SDS011;57723;51.698;5.344;2023-11-19T02:25:12;2.23;;;0.93;;
70312;SDS011;57723;51.698;5.344;2023-11-19T02:27:56;3.17;;;0.90;;
70312;SDS011;57723;51.698;5.344;2023-11-19T02:30:22;2.90;;;1.05;;
70312;SDS011;57723;51.698;5.344;2023-11-19T02:32:54;7.00;;;1.00;;
70312;SDS011;57723;51.698;5.344;2023-11-19T02:35:22;2.70;;;0.93;;
70312;SDS011;57723;51.698;5.344;2023-11-19T02:37:47;3.85;;;1.00;;
70312;SDS011;57723;51.698;5.344;2023-11-19T02:40:13;2.08;;;1.00;;
70312;SDS011;57723;51.698;5.344;2023-11-19T02:42:38;3.37;;;0.90;;
70312;SDS011;57723;51.698;5.344;2023-11-19T02:45:04;4.13;;;1.00;;
70312;SDS011;57723;51.698;5.344;2023-11-19T02:47:31;2.50;;;0.85;;
70312;SDS011;57723;51.698;5.344;2023-11-19T02:49:56;6.33;;;1.00;;
70312;SDS011;57723;51.698;5.344;2023-11-19T02:52:22;1.30;;;0.80;;
70312;SDS011;57723;51.698;5.344;2023-11-19T02:54:48;3.43;;;1.00;;
70312;SDS011;57723;51.698;5.344;2023-11-19T02:57:13;3.17;;;1.17;;
70312;SDS011;57723;51.698;5.344;2023-11-19T02:59:39;2.58;;;1.02;;
70312;SDS011;57723;51.698;5.344;2023-11-19T03:02:08;6.10;;;1.02;;
70312;SDS011;57723;51.698;5.344;2023-11-19T03:04:41;2.63;;;0.90;;
70312;SDS011;57723;51.698;5.344;2023-11-19T03:07:08;2.20;;;0.90;;
70312;SDS011;57723;51.698;5.344;2023-11-19T03:09:33;3.63;;;1.23;;
70312;SDS011;57723;51.698;5.344;2023-11-19T03:12:00;4.18;;;1.10;;
70312;SDS011;57723;51.698;5.344;2023-11-19T03:14:25;1.63;;;0.93;;
70312;SDS011;57723;51.698;5.344;2023-11-19T03:16:51;2.20;;;0.90;;
70312;SDS011;57723;51.698;5.344;2023-11-19T03:19:17;1.83;;;1.00;;
70312;SDS011;57723;51.698;5.344;2023-11-19T03:21:42;2.53;;;0.93;;
70312;SDS011;57723;51.698;5.344;2023-11-19T03:24:07;4.50;;;0.97;;
70312;SDS011;57723;51.698;5.344;2023-11-19T03:26:34;1.97;;;0.80;;
70312;SDS011;57723;51.698;5.344;2023-11-19T03:28:59;2.63;;;1.00;;
70312;SDS011;57723;51.698;5.344;2023-11-19T03:31:26;3.23;;;1.30;;
70312;SDS011;57723;51.698;5.344;2023-11-19T03:33:52;2.33;;;0.85;;
70312;SDS011;57723;51.698;5.344;2023-11-19T03:36:19;4.53;;;1.00;;
70312;SDS011;57723;51.698;5.344;2023-11-19T03:38:44;3.73;;;1.17;;
70312;SDS011;57723;51.698;5.344;2023-11-19T03:41:10;2.47;;;0.93;;
70312;SDS011;57723;51.698;5.344;2023-11-19T03:43:35;2.95;;;0.90;;
70312;SDS011;57723;51.698;5.344;2023-11-19T03:46:00;3.37;;;1.00;;
70312;SDS011;57723;51.698;5.344;2023-11-19T03:48:26;3.87;;;1.13;;
70312;SDS011;57723;51.698;5.344;2023-11-19T03:50:51;5.83;;;1.00;;
70312;SDS011;57723;51.698;5.344;2023-11-19T03:53:16;2.63;;;1.00;;
70312;SDS011;57723;51.698;5.344;2023-11-19T03:55:41;3.37;;;0.90;;
70312;SDS011;57723;51.698;5.344;2023-11-19T03:58:07;3.63;;;0.90;;
70312;SDS011;57723;51.698;5.344;2023-11-19T04:00:32;5.00;;;1.30;;
70312;SDS011;57723;51.698;5.344;2023-11-19T04:02:58;4.77;;;0.97;;
70312;SDS011;57723;51.698;5.344;2023-11-19T04:05:26;5.53;;;0.95;;
70312;SDS011;57723;51.698;5.344;2023-11-19T04:07:52;2.83;;;1.35;;
70312;SDS011;57723;51.698;5.344;2023-11-19T04:10:17;5.47;;;0.97;;
70312;SDS011;57723;51.698;5.344;2023-11-19T04:12:43;3.65;;;1.23;;
70312;SDS011;57723;51.698;5.344;2023-11-19T04:15:10;6.93;;;1.27;;
70312;SDS011;57723;51.698;5.344;2023-11-19T04:17:35;4.38;;;0.98;;
70312;SDS011;57723;51.698;5.344;2023-11-19T04:20:01;5.17;;;1.13;;
70312;SDS011;57723;51.698;5.344;2023-11-19T04:22:26;4.07;;;1.50;;
70312;SDS011;57723;51.698;5.344;2023-11-19T04:24:51;2.20;;;1.10;;
70312;SDS011;57723;51.698;5.344;2023-11-19T04:27:17;5.70;;;1.47;;
70312;SDS011;57723;51.698;5.344;2023-11-19T04:29:42;4.10;;;0.93;;
70312;SDS011;57723;51.698;5.344;2023-11-19T04:32:11;3.80;;;1.00;;
70312;SDS011;57723;51.698;5.344;2023-11-19T04:34:36;4.40;;;1.20;;
70312;SDS011;57723;51.698;5.344;2023-11-19T04:37:03;2.73;;;0.97;;
70312;SDS011;57723;51.698;5.344;2023-11-19T04:39:29;3.17;;;1.23;;
70312;SDS011;57723;51.698;5.344;2023-11-19T04:41:55;3.90;;;1.40;;
70312;SDS011;57723;51.698;5.344;2023-11-19T04:44:24;5.53;;;0.98;;
70312;SDS011;57723;51.698;5.344;2023-11-19T04:46:49;3.83;;;1.00;;
70312;SDS011;57723;51.698;5.344;2023-11-19T04:49:15;4.83;;;1.20;;
70312;SDS011;57723;51.698;5.344;2023-11-19T04:51:41;5.70;;;1.25;;
70312;SDS011;57723;51.698;5.344;2023-11-19T04:54:07;4.00;;;1.20;;
70312;SDS011;57723;51.698;5.344;2023-11-19T04:56:33;3.67;;;1.10;;
70312;SDS011;57723;51.698;5.344;2023-11-19T04:58:59;6.90;;;1.33;;
70312;SDS011;57723;51.698;5.344;2023-11-19T05:01:27;5.63;;;1.27;;
70312;SDS011;57723;51.698;5.344;2023-11-19T05:03:56;6.95;;;1.20;;
70312;SDS011;57723;51.698;5.344;2023-11-19T05:06:25;7.50;;;1.30;;
70312;SDS011;57723;51.698;5.344;2023-11-19T05:08:51;3.63;;;1.05;;
70312;SDS011;57723;51.698;5.344;2023-11-19T05:11:16;2.50;;;1.00;;
70312;SDS011;57723;51.698;5.344;2023-11-19T05:13:44;6.57;;;1.00;;
70312;SDS011;57723;51.698;5.344;2023-11-19T05:16:10;4.05;;;1.27;;
70312;SDS011;57723;51.698;5.344;2023-11-19T05:18:36;9.00;;;1.25;;
70312;SDS011;57723;51.698;5.344;2023-11-19T05:21:01;5.03;;;1.10;;
70312;SDS011;57723;51.698;5.344;2023-11-19T05:23:27;8.03;;;1.10;;
70312;SDS011;57723;51.698;5.344;2023-11-19T05:25:52;6.00;;;1.10;;
70312;SDS011;57723;51.698;5.344;2023-11-19T05:28:17;6.73;;;1.30;;
70312;SDS011;57723;51.698;5.344;2023-11-19T05:30:42;4.07;;;1.07;;
70312;SDS011;57723;51.698;5.344;2023-11-19T05:33:08;4.83;;;1.07;;
70312;SDS011;57723;51.698;5.344;2023-11-19T05:35:34;4.40;;;1.00;;
70312;SDS011;57723;51.698;5.344;2023-11-19T05:38:00;4.00;;;1.37;;
70312;SDS011;57723;51.698;5.344;2023-11-19T05:40:27;8.00;;;1.30;;
70312;SDS011;57723;51.698;5.344;2023-11-19T05:42:53;3.83;;;1.20;;
70312;SDS011;57723;51.698;5.344;2023-11-19T05:45:18;3.57;;;1.13;;
70312;SDS011;57723;51.698;5.344;2023-11-19T05:47:43;17.77;;;1.40;;
70312;SDS011;57723;51.698;5.344;2023-11-19T05:50:09;4.18;;;1.20;;
70312;SDS011;57723;51.698;5.344;2023-11-19T05:52:35;2.58;;;0.90;;
70312;SDS011;57723;51.698;5.344;2023-11-19T05:55:01;5.53;;;1.20;;
70312;SDS011;57723;51.698;5.344;2023-11-19T05:57:34;8.02;;;1.23;;
70312;SDS011;57723;51.698;5.344;2023-11-19T05:59:59;1.98;;;0.80;;
70312;SDS011;57723;51.698;5.344;2023-11-19T06:02:25;4.07;;;0.97;;
70312;SDS011;57723;51.698;5.344;2023-11-19T06:04:52;3.28;;;1.25;;
70312;SDS011;57723;51.698;5.344;2023-11-19T06:07:17;4.77;;;1.30;;
70312;SDS011;57723;51.698;5.344;2023-11-19T06:09:42;4.13;;;1.10;;
70312;SDS011;57723;51.698;5.344;2023-11-19T06:12:08;5.60;;;1.10;;
70312;SDS011;57723;51.698;5.344;2023-11-19T06:14:33;6.85;;;1.20;;
70312;SDS011;57723;51.698;5.344;2023-11-19T06:16:58;7.37;;;1.40;;
70312;SDS011;57723;51.698;5.344;2023-11-19T06:19:24;4.07;;;1.10;;
70312;SDS011;57723;51.698;5.344;2023-11-19T06:21:50;7.00;;;1.00;;
70312;SDS011;57723;51.698;5.344;2023-11-19T06:24:15;5.00;;;1.15;;
70312;SDS011;57723;51.698;5.344;2023-11-19T06:26:41;6.33;;;1.27;;
70312;SDS011;57723;51.698;5.344;2023-11-19T06:29:06;4.30;;;1.17;;
70312;SDS011;57723;51.698;5.344;2023-11-19T06:31:32;8.63;;;1.20;;
70312;SDS011;57723;51.698;5.344;2023-11-19T06:33:57;6.72;;;1.27;;
70312;SDS011;57723;51.698;5.344;2023-11-19T06:36:22;7.50;;;1.33;;
70312;SDS011;57723;51.698;5.344;2023-11-19T06:38:48;7.50;;;1.30;;
70312;SDS011;57723;51.698;5.344;2023-11-19T06:41:13;6.20;;;1.10;;
70312;SDS011;57723;51.698;5.344;2023-11-19T06:43:38;4.00;;;1.10;;
70312;SDS011;57723;51.698;5.344;2023-11-19T06:46:04;5.63;;;1.37;;
70312;SDS011;57723;51.698;5.344;2023-11-19T06:48:31;4.45;;;1.25;;
70312;SDS011;57723;51.698;5.344;2023-11-19T06:50:57;8.10;;;1.20;;
70312;SDS011;57723;51.698;5.344;2023-11-19T06:53:22;5.33;;;1.03;;
70312;SDS011;57723;51.698;5.344;2023-11-19T06:55:47;4.60;;;1.20;;
70312;SDS011;57723;51.698;5.344;2023-11-19T06:58:13;5.37;;;1.10;;
70312;SDS011;57723;51.698;5.344;2023-11-19T07:00:38;5.18;;;1.30;;
70312;SDS011;57723;51.698;5.344;2023-11-19T07:03:03;10.17;;;1.40;;
70312;SDS011;57723;51.698;5.344;2023-11-19T07:05:31;6.00;;;1.20;;
70312;SDS011;57723;51.698;5.344;2023-11-19T07:07:56;6.00;;;1.20;;
70312;SDS011;57723;51.698;5.344;2023-11-19T07:10:24;8.37;;;1.13;;
70312;SDS011;57723;51.698;5.344;2023-11-19T07:12:50;3.60;;;1.05;;
70312;SDS011;57723;51.698;5.344;2023-11-19T07:15:15;17.87;;;1.70;;
70312;SDS011;57723;51.698;5.344;2023-11-19T07:17:42;6.68;;;0.95;;
70312;SDS011;57723;51.698;5.344;2023-11-19T07:20:09;17.67;;;1.85;;
70312;SDS011;57723;51.698;5.344;2023-11-19T07:22:38;4.20;;;1.10;;
70312;SDS011;57723;51.698;5.344;2023-11-19T07:25:03;7.43;;;1.30;;
70312;SDS011;57723;51.698;5.344;2023-11-19T07:27:29;6.60;;;1.05;;
70312;SDS011;57723;51.698;5.344;2023-11-19T07:29:54;7.55;;;1.30;;
70312;SDS011;57723;51.698;5.344;2023-11-19T07:32:22;8.30;;;1.33;;
70312;SDS011;57723;51.698;5.344;2023-11-19T07:34:48;12.23;;;1.30;;
70312;SDS011;57723;51.698;5.344;2023-11-19T07:37:13;12.13;;;1.77;;
70312;SDS011;57723;51.698;5.344;2023-11-19T07:39:39;13.37;;;1.03;;
70312;SDS011;57723;51.698;5.344;2023-11-19T07:42:06;3.05;;;1.08;;
70312;SDS011;57723;51.698;5.344;2023-11-19T07:44:31;8.80;;;1.43;;
70312;SDS011;57723;51.698;5.344;2023-11-19T07:46:57;4.88;;;1.58;;
70312;SDS011;57723;51.698;5.344;2023-11-19T07:49:23;6.70;;;1.10;;
70312;SDS011;57723;51.698;5.344;2023-11-19T07:51:49;8.55;;;1.30;;
70312;SDS011;57723;51.698;5.344;2023-11-19T07:54:14;7.77;;;1.20;;
70312;SDS011;57723;51.698;5.344;2023-11-19T07:56:40;5.70;;;1.00;;
70312;SDS011;57723;51.698;5.344;2023-11-19T07:59:05;8.45;;;1.30;;
70312;SDS011;57723;51.698;5.344;2023-11-19T08:01:36;5.68;;;1.52;;
70312;SDS011;57723;51.698;5.344;2023-11-19T08:04:01;7.57;;;1.50;;
70312;SDS011;57723;51.698;5.344;2023-11-19T08:06:27;10.20;;;1.60;;
70312;SDS011;57723;51.698;5.344;2023-11-19T08:08:52;15.93;;;1.53;;
70312;SDS011;57723;51.698;5.344;2023-11-19T08:11:18;14.00;;;1.65;;
70312;SDS011;57723;51.698;5.344;2023-11-19T08:13:45;5.63;;;1.07;;
70312;SDS011;57723;51.698;5.344;2023-11-19T08:16:10;7.35;;;1.20;;
70312;SDS011;57723;51.698;5.344;2023-11-19T08:18:36;7.07;;;1.20;;
70312;SDS011;57723;51.698;5.344;2023-11-19T08:21:01;4.80;;;0.90;;
70312;SDS011;57723;51.698;5.344;2023-11-19T08:23:30;6.60;;;1.10;;
70312;SDS011;57723;51.698;5.344;2023-11-19T08:25:55;4.43;;;1.17;;
70312;SDS011;57723;51.698;5.344;2023-11-19T08:28:20;4.50;;;1.20;;
70312;SDS011;57723;51.698;5.344;2023-11-19T08:30:46;5.63;;;0.90;;
70312;SDS011;57723;51.698;5.344;2023-11-19T08:33:11;6.80;;;1.47;;
70312;SDS011;57723;51.698;5.344;2023-11-19T08:35:36;7.97;;;1.07;;
70312;SDS011;57723;51.698;5.344;2023-11-19T08:38:03;6.13;;;1.40;;
70312;SDS011;57723;51.698;5.344;2023-11-19T08:40:28;5.97;;;1.27;;
70312;SDS011;57723;51.698;5.344;2023-11-19T08:42:55;9.05;;;1.52;;
70312;SDS011;57723;51.698;5.344;2023-11-19T08:45:20;5.72;;;1.30;;
70312;SDS011;57723;51.698;5.344;2023-11-19T08:47:46;5.03;;;1.17;;
70312;SDS011;57723;51.698;5.344;2023-11-19T08:50:11;6.53;;;1.38;;
70312;SDS011;57723;51.698;5.344;2023-11-19T08:52:37;4.75;;;1.23;;
70312;SDS011;57723;51.698;5.344;2023-11-19T08:55:02;7.37;;;1.30;;
70312;SDS011;57723;51.698;5.344;2023-11-19T08:57:30;4.63;;;1.10;;
70312;SDS011;57723;51.698;5.344;2023-11-19T08:59:55;5.27;;;1.30;;
70312;SDS011;57723;51.698;5.344;2023-11-19T09:02:20;6.40;;;1.40;;
70312;SDS011;57723;51.698;5.344;2023-11-19T09:04:46;5.23;;;1.33;;
70312;SDS011;57723;51.698;5.344;2023-11-19T09:07:11;6.47;;;1.30;;
70312;SDS011;57723;51.698;5.344;2023-11-19T09:09:39;7.70;;;1.60;;
70312;SDS011;57723;51.698;5.344;2023-11-19T09:12:05;7.27;;;1.30;;
70312;SDS011;57723;51.698;5.344;2023-11-19T09:14:30;6.03;;;1.43;;
70312;SDS011;57723;51.698;5.344;2023-11-19T09:16:56;4.07;;;1.30;;
70312;SDS011;57723;51.698;5.344;2023-11-19T09:19:21;3.42;;;1.05;;
70312;SDS011;57723;51.698;5.344;2023-11-19T09:21:49;6.13;;;1.33;;
70312;SDS011;57723;51.698;5.344;2023-11-19T09:24:15;6.32;;;1.42;;
70312;SDS011;57723;51.698;5.344;2023-11-19T09:26:40;6.63;;;1.45;;
70312;SDS011;57723;51.698;5.344;2023-11-19T09:29:07;4.57;;;1.10;;
70312;SDS011;57723;51.698;5.344;2023-11-19T09:31:32;4.82;;;1.08;;
70312;SDS011;57723;51.698;5.344;2023-11-19T09:33:58;5.03;;;1.30;;
70312;SDS011;57723;51.698;5.344;2023-11-19T09:36:23;5.70;;;1.20;;
70312;SDS011;57723;51.698;5.344;2023-11-19T09:38:49;6.23;;;1.30;;
70312;SDS011;57723;51.698;5.344;2023-11-19T09:41:15;4.25;;;1.40;;
70312;SDS011;57723;51.698;5.344;2023-11-19T09:43:41;5.38;;;1.20;;
70312;SDS011;57723;51.698;5.344;2023-11-19T09:46:07;6.70;;;1.30;;
70312;SDS011;57723;51.698;5.344;2023-11-19T09:48:37;4.95;;;1.40;;
70312;SDS011;57723;51.698;5.344;2023-11-19T09:51:03;6.60;;;1.40;;
70312;SDS011;57723;51.698;5.344;2023-11-19T09:53:29;7.85;;;1.27;;
70312;SDS011;57723;51.698;5.344;2023-11-19T09:55:55;8.00;;;1.35;;
70312;SDS011;57723;51.698;5.344;2023-11-19T09:58:21;5.40;;;1.20;;
70312;SDS011;57723;51.698;5.344;2023-11-19T10:00:47;8.85;;;1.58;;
70312;SDS011;57723;51.698;5.344;2023-11-19T10:03:12;9.43;;;1.55;;
70312;SDS011;57723;51.698;5.344;2023-11-19T10:05:38;7.07;;;1.30;;
70312;SDS011;57723;51.698;5.344;2023-11-19T10:08:04;9.13;;;1.63;;
70312;SDS011;57723;51.698;5.344;2023-11-19T10:10:30;8.45;;;1.88;;
70312;SDS011;57723;51.698;5.344;2023-11-19T10:12:55;7.23;;;1.60;;
70312;SDS011;57723;51.698;5.344;2023-11-19T10:15:22;6.97;;;1.80;;
70312;SDS011;57723;51.698;5.344;2023-11-19T10:17:49;10.65;;;1.73;;
70312;SDS011;57723;51.698;5.344;2023-11-19T10:20:14;9.02;;;1.70;;
70312;SDS011;57723;51.698;5.344;2023-11-19T10:22:39;9.63;;;1.90;;
70312;SDS011;57723;51.698;5.344;2023-11-19T10:25:05;10.13;;;1.60;;
70312;SDS011;57723;51.698;5.344;2023-11-19T10:27:47;7.32;;;1.60;;
70312;SDS011;57723;51.698;5.344;2023-11-19T10:30:12;8.88;;;1.40;;
70312;SDS011;57723;51.698;5.344;2023-11-19T10:32:38;6.60;;;1.40;;
70312;SDS011;57723;51.698;5.344;2023-11-19T10:35:06;9.25;;;1.70;;
70312;SDS011;57723;51.698;5.344;2023-11-19T10:37:32;7.10;;;1.40;;
70312;SDS011;57723;51.698;5.344;2023-11-19T10:39:57;8.33;;;1.60;;
70312;SDS011;57723;51.698;5.344;2023-11-19T10:42:23;6.63;;;1.50;;
70312;SDS011;57723;51.698;5.344;2023-11-19T10:44:48;7.10;;;1.40;;
70312;SDS011;57723;51.698;5.344;2023-11-19T10:47:14;5.45;;;1.52;;
70312;SDS011;57723;51.698;5.344;2023-11-19T10:49:42;7.93;;;1.80;;
70312;SDS011;57723;51.698;5.344;2023-11-19T10:52:08;12.95;;;2.05;;
70312;SDS011;57723;51.698;5.344;2023-11-19T10:54:34;11.90;;;2.00;;
70312;SDS011;57723;51.698;5.344;2023-11-19T10:57:00;3.90;;;1.20;;
70312;SDS011;57723;51.698;5.344;2023-11-19T10:59:28;8.80;;;1.60;;
70312;SDS011;57723;51.698;5.344;2023-11-19T11:01:54;7.43;;;1.58;;
70312;SDS011;57723;51.698;5.344;2023-11-19T11:04:27;7.78;;;1.73;;
70312;SDS011;57723;51.698;5.344;2023-11-19T11:06:56;7.88;;;1.88;;
70312;SDS011;57723;51.698;5.344;2023-11-19T11:09:30;6.75;;;1.70;;
70312;SDS011;57723;51.698;5.344;2023-11-19T11:11:56;9.05;;;1.50;;
70312;SDS011;57723;51.698;5.344;2023-11-19T11:14:22;10.60;;;2.40;;
70312;SDS011;57723;51.698;5.344;2023-11-19T11:16:49;8.77;;;1.60;;
70312;SDS011;57723;51.698;5.344;2023-11-19T11:19:17;6.87;;;1.50;;
70312;SDS011;57723;51.698;5.344;2023-11-19T11:21:47;6.88;;;1.63;;
70312;SDS011;57723;51.698;5.344;2023-11-19T11:24:19;7.53;;;1.63;;
70312;SDS011;57723;51.698;5.344;2023-11-19T11:27:05;10.43;;;1.85;;
70312;SDS011;57723;51.698;5.344;2023-11-19T11:32:39;7.97;;;1.90;;
70312;SDS011;57723;51.698;5.344;2023-11-19T11:37:42;9.68;;;1.83;;
70312;SDS011;57723;51.698;5.344;2023-11-19T11:40:13;7.88;;;1.67;;
70312;SDS011;57723;51.698;5.344;2023-11-19T11:42:39;8.02;;;2.05;;
70312;SDS011;57723;51.698;5.344;2023-11-19T11:50:11;8.77;;;1.95;;
70312;SDS011;57723;51.698;5.344;2023-11-19T11:57:52;6.68;;;1.55;;
70312;SDS011;57723;51.698;5.344;2023-11-19T12:00:21;4.47;;;1.40;;
70312;SDS011;57723;51.698;5.344;2023-11-19T12:02:48;6.73;;;1.40;;
70312;SDS011;57723;51.698;5.344;2023-11-19T12:05:13;6.63;;;1.75;;
70312;SDS011;57723;51.698;5.344;2023-11-19T12:07:39;7.85;;;1.95;;
70312;SDS011;57723;51.698;5.344;2023-11-19T12:10:08;10.30;;;1.83;;
70312;SDS011;57723;51.698;5.344;2023-11-19T12:12:34;7.97;;;1.65;;
70312;SDS011;57723;51.698;5.344;2023-11-19T12:15:07;9.18;;;2.00;;
70312;SDS011;57723;51.698;5.344;2023-11-19T12:20:00;9.57;;;1.70;;
70312;SDS011;57723;51.698;5.344;2023-11-19T12:22:25;7.50;;;1.67;;
70312;SDS011;57723;51.698;5.344;2023-11-19T12:24:51;6.37;;;1.63;;
70312;SDS011;57723;51.698;5.344;2023-11-19T12:27:17;6.90;;;1.80;;
70312;SDS011;57723;51.698;5.344;2023-11-19T12:29:43;8.80;;;2.00;;
70312;SDS011;57723;51.698;5.344;2023-11-19T12:32:11;5.32;;;1.75;;
70312;SDS011;57723;51.698;5.344;2023-11-19T12:34:36;8.70;;;1.88;;
70312;SDS011;57723;51.698;5.344;2023-11-19T12:37:05;7.30;;;2.00;;
70312;SDS011;57723;51.698;5.344;2023-11-19T12:39:31;8.60;;;1.65;;
70312;SDS011;57723;51.698;5.344;2023-11-19T12:41:56;8.45;;;1.88;;
70312;SDS011;57723;51.698;5.344;2023-11-19T12:44:24;9.13;;;2.15;;
70312;SDS011;57723;51.698;5.344;2023-11-19T12:47:05;6.20;;;1.40;;
70312;SDS011;57723;51.698;5.344;2023-11-19T12:49:36;4.03;;;1.33;;
70312;SDS011;57723;51.698;5.344;2023-11-19T12:52:01;7.07;;;1.90;;
70312;SDS011;57723;51.698;5.344;2023-11-19T12:54:33;7.72;;;1.85;;
70312;SDS011;57723;51.698;5.344;2023-11-19T12:56:59;6.80;;;1.83;;
70312;SDS011;57723;51.698;5.344;2023-11-19T12:59:24;6.90;;;2.00;;
70312;SDS011;57723;51.698;5.344;2023-11-19T13:01:55;7.13;;;1.70;;
70312;SDS011;57723;51.698;5.344;2023-11-19T13:04:21;4.47;;;1.52;;
70312;SDS011;57723;51.698;5.344;2023-11-19T13:06:46;7.00;;;1.77;;
70312;SDS011;57723;51.698;5.344;2023-11-19T13:09:33;6.75;;;1.75;;
70312;SDS011;57723;51.698;5.344;2023-11-19T13:11:58;8.18;;;1.85;;
70312;SDS011;57723;51.698;5.344;2023-11-19T13:14:24;7.65;;;1.85;;
70312;SDS011;57723;51.698;5.344;2023-11-19T13:17:02;4.53;;;1.38;;
70312;SDS011;57723;51.698;5.344;2023-11-19T13:19:27;6.87;;;1.53;;
70312;SDS011;57723;51.698;5.344;2023-11-19T13:21:53;6.70;;;1.63;;
70312;SDS011;57723;51.698;5.344;2023-11-19T13:24:18;7.68;;;1.85;;
70312;SDS011;57723;51.698;5.344;2023-11-19T13:26:44;6.37;;;1.53;;
70312;SDS011;57723;51.698;5.344;2023-11-19T13:29:09;8.80;;;2.13;;
70312;SDS011;57723;51.698;5.344;2023-11-19T13:31:36;7.78;;;1.60;;
70312;SDS011;57723;51.698;5.344;2023-11-19T13:34:04;8.20;;;1.80;;
70312;SDS011;57723;51.698;5.344;2023-11-19T13:36:32;5.95;;;2.10;;
70312;SDS011;57723;51.698;5.344;2023-11-19T13:38:58;6.38;;;1.60;;
70312;SDS011;57723;51.698;5.344;2023-11-19T13:41:25;9.13;;;1.52;;
70312;SDS011;57723;51.698;5.344;2023-11-19T13:43:51;8.82;;;1.67;;
70312;SDS011;57723;51.698;5.344;2023-11-19T13:46:16;6.55;;;1.60;;
70312;SDS011;57723;51.698;5.344;2023-11-19T13:48:42;8.15;;;1.80;;
70312;SDS011;57723;51.698;5.344;2023-11-19T13:51:08;6.43;;;1.60;;
70312;SDS011;57723;51.698;5.344;2023-11-19T13:53:35;7.93;;;1.80;;
70312;SDS011;57723;51.698;5.344;2023-11-19T13:56:00;7.50;;;1.80;;
70312;SDS011;57723;51.698;5.344;2023-11-19T13:58:26;6.43;;;1.90;;
70312;SDS011;57723;51.698;5.344;2023-11-19T14:00:51;5.57;;;1.73;;
70312;SDS011;57723;51.698;5.344;2023-11-19T14:03:17;8.02;;;1.80;;
70312;SDS011;57723;51.698;5.344;2023-11-19T14:05:43;7.00;;;2.10;;
70312;SDS011;57723;51.698;5.344;2023-11-19T14:08:08;6.50;;;1.50;;
70312;SDS011;57723;51.698;5.344;2023-11-19T14:10:37;3.95;;;1.40;;
70312;SDS011;57723;51.698;5.344;2023-11-19T14:13:04;7.55;;;2.00;;
70312;SDS011;57723;51.698;5.344;2023-11-19T14:15:30;9.43;;;2.27;;
70312;SDS011;57723;51.698;5.344;2023-11-19T14:17:55;6.80;;;1.42;;
70312;SDS011;57723;51.698;5.344;2023-11-19T14:20:20;5.50;;;2.10;;
70312;SDS011;57723;51.698;5.344;2023-11-19T14:22:46;5.03;;;1.50;;
70312;SDS011;57723;51.698;5.344;2023-11-19T14:25:15;5.97;;;1.30;;
70312;SDS011;57723;51.698;5.344;2023-11-19T14:27:42;5.78;;;1.50;;
70312;SDS011;57723;51.698;5.344;2023-11-19T14:30:08;4.97;;;1.58;;
70312;SDS011;57723;51.698;5.344;2023-11-19T14:32:37;6.30;;;1.63;;
70312;SDS011;57723;51.698;5.344;2023-11-19T14:35:05;6.20;;;1.60;;
70312;SDS011;57723;51.698;5.344;2023-11-19T14:37:31;7.38;;;1.63;;
70312;SDS011;57723;51.698;5.344;2023-11-19T14:39:57;6.25;;;1.70;;
70312;SDS011;57723;51.698;5.344;2023-11-19T14:42:25;7.45;;;1.95;;
70312;SDS011;57723;51.698;5.344;2023-11-19T14:44:51;8.73;;;2.13;;
70312;SDS011;57723;51.698;5.344;2023-11-19T14:47:20;5.60;;;1.45;;
70312;SDS011;57723;51.698;5.344;2023-11-19T14:49:46;6.03;;;1.60;;
70312;SDS011;57723;51.698;5.344;2023-11-19T14:52:12;8.20;;;2.05;;
70312;SDS011;57723;51.698;5.344;2023-11-19T14:54:40;5.75;;;1.50;;
70312;SDS011;57723;51.698;5.344;2023-11-19T14:57:11;4.70;;;1.48;;
70312;SDS011;57723;51.698;5.344;2023-11-19T14:59:36;7.33;;;1.73;;
70312;SDS011;57723;51.698;5.344;2023-11-19T15:02:02;5.88;;;1.65;;